LFRK/CFR METAR and TAF weather

Enter ICAO airport designator
Station Type Date Time Source
LFRK METAR 2020/06/03 16:30 UTC NOAA

LFRK 031630Z AUTO 03011KT 360V070 CAVOK 18/10 Q1004 TEMPO 4000 SHRA BKN030CB


Station Type Date Time Source
LFRK Decoded METAR 2020/06/03 16:30 UTC NOAA

Caen, France (LFRK) 49-11N 000-27W 67M
Jun 03, 2020 - 12:30 PM EDT / 2020.06.03 1630 UTC
Wind: from the NNE (030 degrees) at 13 MPH (11 KT) (direction variable):0
Visibility: greater than 7 mile(s):0
Weather: Cumulonimbus clouds observed
Temperature: 64 F (18 C)
Dew Point: 50 F (10 C)
Relative Humidity: 59%
Pressure (altimeter): 29.65 in. Hg (1004 hPa)
ob: LFRK 031630Z AUTO 03011KT 360V070 CAVOK 18/10 Q1004 TEMPO 4000 SHRA BKN030CB
cycle: 16

Station Type Date Time Source
LFRK TAF 2020/06/02 06:21 UTC NOAA

TAF LFRK 020500Z 0206/0306 33004KT CAVOK

Example: see airport list